createdAt,value
2018-02-20T00:27:13.432Z,79.57
2018-02-20T00:33:00.555Z,73.00
2018-02-20T00:35:30.511Z,77.53
2018-02-20T00:46:55.420Z,72.97
2018-02-20T00:49:26.031Z,61.87
2018-02-20T00:51:55.931Z,64.67
2018-02-20T00:54:25.970Z,72.03
2018-02-20T00:56:55.909Z,76.80
2018-02-20T00:59:25.757Z,77.90
2018-02-20T01:01:55.637Z,67.10
2018-02-20T01:04:25.508Z,71.10
2018-02-20T01:06:55.396Z,78.17
2018-02-20T01:09:25.249Z,76.40
2018-02-20T01:11:55.087Z,69.03
2018-02-20T01:14:24.931Z,72.40
2018-02-20T01:16:54.772Z,77.47
2018-02-20T01:19:35.914Z,83.73
2018-02-20T01:24:50.960Z,89.27
2018-02-20T01:30:26.981Z,72.43
2018-02-20T01:44:56.589Z,78.13
2018-02-20T01:47:26.517Z,78.23
2018-02-20T01:55:58.126Z,64.67
2018-02-20T01:58:28.162Z,73.90
2018-02-20T02:00:58.885Z,73.77
2018-02-20T02:03:28.878Z,77.93
2018-02-20T02:05:58.897Z,79.87
2018-02-20T02:08:28.939Z,66.90
2018-02-20T02:10:58.996Z,64.67
2018-02-20T02:13:29.064Z,79.87
2018-02-20T02:15:59.091Z,69.80
2018-02-20T02:24:30.011Z,62.47
2018-02-20T02:26:59.948Z,63.13
2018-02-20T02:44:45.858Z,79.43
2018-02-20T02:47:15.808Z,66.70
2018-02-20T03:13:44.339Z,78.80
2018-02-20T03:16:14.321Z,73.13
2018-02-20T03:30:34.868Z,65.37
2018-02-20T03:33:04.795Z,81.30
2018-02-20T03:35:34.813Z,76.00
2018-02-20T03:41:10.720Z,72.57
2018-02-20T03:43:40.690Z,68.50
2018-02-20T03:46:10.614Z,76.73
2018-02-20T04:00:32.938Z,82.43
2018-02-20T04:03:02.926Z,68.40
2018-02-20T04:05:33.121Z,81.10
2018-02-20T04:08:24.593Z,80.03
2018-02-20T04:10:54.655Z,80.20
2018-02-20T04:13:24.759Z,83.50
2018-02-20T04:15:54.698Z,82.07
2018-02-20T04:24:21.674Z,89.47
2018-02-20T04:26:51.611Z,76.37
2018-02-20T04:41:36.783Z,80.10
2018-02-20T05:04:54.452Z,82.63
2018-02-20T05:19:46.377Z,74.90
2018-02-20T05:22:17.620Z,81.67
2018-02-20T05:24:48.558Z,96.57
2018-02-20T05:27:18.924Z,89.50
2018-02-20T05:35:51.362Z,80.03
2018-02-20T06:04:57.284Z,76.63
2018-02-20T06:16:11.947Z,81.33
2018-02-20T06:18:41.858Z,98.27
2018-02-20T06:21:11.966Z,84.03
2018-02-20T06:23:42.187Z,74.73
2018-02-20T06:26:12.370Z,80.90
2018-02-20T06:28:42.616Z,89.33
2018-02-20T06:31:12.822Z,87.70
2018-02-20T06:33:44.075Z,94.83
2018-02-20T06:36:14.127Z,81.17
2018-02-20T06:53:47.815Z,79.07
2018-02-20T06:56:18.259Z,75.73
2018-02-20T07:59:28.710Z,63.80
2018-02-20T08:01:58.588Z,71.80
2018-02-20T08:04:28.665Z,72.17
2018-02-20T08:06:58.649Z,73.80
2018-02-20T08:09:28.509Z,65.33
2018-02-20T08:11:58.365Z,65.23
2018-02-20T08:14:28.530Z,68.27
2018-02-20T08:16:58.549Z,60.23
2018-02-20T08:19:28.491Z,70.43
2018-02-20T08:21:58.714Z,71.00
2018-02-20T08:24:28.572Z,79.10
2018-02-20T08:26:58.518Z,64.13
2018-02-20T08:29:29.136Z,69.07
2018-02-20T08:31:59.031Z,63.30
2018-02-20T08:34:29.523Z,73.63
2018-02-20T08:36:59.377Z,67.90
2018-02-20T08:39:29.295Z,71.33
2018-02-20T08:41:59.150Z,65.43
2018-02-20T08:44:29.020Z,65.03
2018-02-20T08:46:59.707Z,62.00
2018-02-20T08:49:30.404Z,69.27
2018-02-20T08:52:00.351Z,70.70
2018-02-20T08:54:30.347Z,58.57
2018-02-20T08:57:00.203Z,65.20
2018-02-20T08:59:30.219Z,52.90
2018-02-20T09:02:10.676Z,57.53
2018-02-20T09:04:53.019Z,70.60
2018-02-20T09:27:39.351Z,59.57
2018-02-20T09:30:09.353Z,51.43
2018-02-20T09:32:39.202Z,55.60
2018-02-20T09:35:09.131Z,45.40
2018-02-20T09:37:39.037Z,53.93
2018-02-20T09:40:08.983Z,51.53
2018-02-20T09:42:38.846Z,52.30
2018-02-20T09:45:08.720Z,48.93
2018-02-20T09:47:38.582Z,48.80
2018-02-20T09:50:08.445Z,42.47
2018-02-20T09:52:38.383Z,45.03
2018-02-20T09:55:08.221Z,41.63
2018-02-20T09:57:38.165Z,44.43
2018-02-20T10:00:08.023Z,43.73
2018-02-20T10:02:37.901Z,44.10
2018-02-20T10:05:07.736Z,51.07
2018-02-20T10:07:37.586Z,50.53
2018-02-20T10:10:08.124Z,44.37
2018-02-20T10:12:37.985Z,39.77
2018-02-20T10:15:07.913Z,42.80
2018-02-20T10:17:37.764Z,45.20
2018-02-20T10:20:07.641Z,43.20
2018-02-20T10:34:30.312Z,48.40
2018-02-20T10:37:01.445Z,42.00
2018-02-20T10:39:41.936Z,42.90
2018-02-20T10:42:12.110Z,46.73
2018-02-20T10:44:42.256Z,42.50
2018-02-20T10:47:18.089Z,46.27
2018-02-20T10:49:51.664Z,42.47
2018-02-20T11:02:26.028Z,41.27
2018-02-20T11:05:27.026Z,48.10
2018-02-20T11:22:51.618Z,49.37
2018-02-20T11:25:21.607Z,56.10
2018-02-20T11:27:52.058Z,58.67
2018-02-20T11:30:21.991Z,61.63
2018-02-20T11:32:52.009Z,55.43
2018-02-20T11:35:21.998Z,58.97
2018-02-20T11:37:52.024Z,58.80
2018-02-20T11:40:22.086Z,59.33
2018-02-20T11:42:52.041Z,50.30
2018-02-20T11:45:22.262Z,51.73
2018-02-20T11:47:52.319Z,54.67
2018-02-20T11:50:22.194Z,46.43
2018-02-20T11:52:52.061Z,53.57
2018-02-20T11:55:21.947Z,56.23
2018-02-20T11:57:52.588Z,55.40
2018-02-20T12:00:22.560Z,52.47
2018-02-20T12:02:52.768Z,59.90
2018-02-20T12:05:23.660Z,56.90
2018-02-20T12:07:53.590Z,59.77
2018-02-20T12:10:23.654Z,54.40
2018-02-20T12:12:53.930Z,56.83
2018-02-20T12:15:23.878Z,54.33
2018-02-20T12:17:53.916Z,60.00
2018-02-20T12:20:23.920Z,44.20
2018-02-20T12:22:54.221Z,58.70
2018-02-20T12:25:24.938Z,60.53
2018-02-20T12:27:55.187Z,59.27
2018-02-20T12:30:25.024Z,55.93
2018-02-20T12:32:55.290Z,49.50
2018-02-20T12:35:25.304Z,56.60
2018-02-20T12:37:55.510Z,56.97
2018-02-20T12:40:25.398Z,59.00
2018-02-20T12:42:55.274Z,52.67
2018-02-20T12:45:25.263Z,61.27
2018-02-20T12:57:10.487Z,46.73
2018-02-20T12:59:40.380Z,43.73
2018-02-20T13:02:10.334Z,52.90
2018-02-20T13:04:40.194Z,55.87
2018-02-20T13:07:10.169Z,60.60
2018-02-20T13:09:41.081Z,57.77
2018-02-20T13:12:11.048Z,56.10
2018-02-20T13:14:41.200Z,47.70
2018-02-20T13:17:11.045Z,52.33
2018-02-20T13:19:40.952Z,63.27
2018-02-20T13:22:11.769Z,49.90
2018-02-20T13:24:41.668Z,60.03
2018-02-20T13:27:11.568Z,64.40
2018-02-20T13:29:41.438Z,51.00
2018-02-20T13:32:11.985Z,50.20
2018-02-20T13:34:41.884Z,41.87
2018-02-20T13:37:11.848Z,48.10
2018-02-20T13:39:41.834Z,54.03
2018-02-20T13:42:12.197Z,47.00
2018-02-20T13:44:42.120Z,47.83
2018-02-20T13:47:12.116Z,46.43
2018-02-20T13:49:42.018Z,49.00
2018-02-20T13:52:11.870Z,50.77
2018-02-20T13:54:41.746Z,47.17
2018-02-20T13:57:11.676Z,47.03
2018-02-20T13:59:41.605Z,44.10
2018-02-20T14:02:11.430Z,46.07
2018-02-20T14:04:41.768Z,51.07
2018-02-20T14:07:11.615Z,50.80
2018-02-20T14:09:41.820Z,49.33
2018-02-20T14:12:11.829Z,55.10
2018-02-20T14:14:43.139Z,50.23
2018-02-20T14:17:13.023Z,45.93
2018-02-20T14:19:43.161Z,30.60
2018-02-20T14:22:13.048Z,45.60
2018-02-20T14:24:43.196Z,47.30
2018-02-20T14:27:13.016Z,44.03
2018-02-20T14:29:43.082Z,47.20
2018-02-20T14:32:12.978Z,47.77
2018-02-20T14:34:42.996Z,44.87
2018-02-20T14:37:13.046Z,43.77
2018-02-20T14:39:42.983Z,46.97
2018-02-20T14:42:13.542Z,44.13
2018-02-20T14:44:43.658Z,63.07
2018-02-20T14:47:13.682Z,47.43
2018-02-20T14:49:43.613Z,46.50
2018-02-20T14:52:13.487Z,52.83
2018-02-20T14:54:43.338Z,41.33
2018-02-20T14:57:13.232Z,41.37
2018-02-20T14:59:43.136Z,48.93
2018-02-20T15:02:13.052Z,51.63
2018-02-20T15:04:42.942Z,55.13
2018-02-20T15:07:12.813Z,49.10
2018-02-20T15:09:42.797Z,51.67
2018-02-20T15:12:12.680Z,55.93
2018-02-20T15:14:42.552Z,48.97
2018-02-20T15:17:12.409Z,54.60
2018-02-20T15:19:42.349Z,45.40
2018-02-20T15:22:12.250Z,45.67
2018-02-20T15:24:42.209Z,47.20
2018-02-20T15:27:12.182Z,51.50
2018-02-20T15:29:42.086Z,51.00
2018-02-20T15:32:12.022Z,53.77
2018-02-20T15:34:43.009Z,52.47
2018-02-20T15:37:13.021Z,49.53
2018-02-20T15:39:42.853Z,55.20
2018-02-20T15:42:12.759Z,53.13
2018-02-20T15:44:42.622Z,48.43
2018-02-20T15:47:12.832Z,52.30
2018-02-20T15:49:42.724Z,49.20
2018-02-20T15:52:12.863Z,53.70
2018-02-20T15:54:42.712Z,54.20
2018-02-20T15:57:12.652Z,54.73
2018-02-20T15:59:42.546Z,50.77
2018-02-20T16:02:12.417Z,47.80
2018-02-20T16:04:42.393Z,54.63
2018-02-20T16:07:12.316Z,61.73
2018-02-20T16:09:42.485Z,56.10
2018-02-20T16:12:12.476Z,60.80
2018-02-20T16:14:42.372Z,55.40
2018-02-20T16:17:12.503Z,50.93
2018-02-20T16:19:42.372Z,50.53
2018-02-20T16:22:12.318Z,50.33
2018-02-20T16:24:42.209Z,56.27
2018-02-20T16:27:12.107Z,51.77
2018-02-20T16:29:42.069Z,57.17
2018-02-20T16:32:12.730Z,55.50
2018-02-20T16:34:42.794Z,52.60
2018-02-20T16:37:12.666Z,54.57
2018-02-20T16:39:42.880Z,55.33
2018-02-20T16:42:12.728Z,56.57
2018-02-20T16:44:42.638Z,48.83
2018-02-20T16:47:12.546Z,45.90
2018-02-20T16:49:42.404Z,51.53
2018-02-20T16:52:12.238Z,52.17
2018-02-20T16:54:42.338Z,57.17
2018-02-20T16:57:12.192Z,50.50
2018-02-20T16:59:42.107Z,53.20
2018-02-20T17:02:11.966Z,50.50
2018-02-20T17:04:42.136Z,58.30
2018-02-20T17:07:21.921Z,57.90
2018-02-20T17:09:54.127Z,55.40
2018-02-20T17:12:24.025Z,53.03
2018-02-20T17:14:53.910Z,58.07
2018-02-20T17:17:23.891Z,45.47
2018-02-20T17:19:53.811Z,57.20
2018-02-20T17:22:23.807Z,57.90
2018-02-20T17:24:53.741Z,57.27
2018-02-20T17:27:23.991Z,50.60
2018-02-20T17:29:53.837Z,52.17
2018-02-20T17:32:23.876Z,48.67
2018-02-20T17:34:53.732Z,50.87
2018-02-20T17:37:24.082Z,50.07
2018-02-20T17:39:53.923Z,54.77
2018-02-20T17:42:24.422Z,54.90
2018-02-20T17:44:54.314Z,51.90
2018-02-20T17:47:25.554Z,48.90
2018-02-20T17:49:56.471Z,61.47
2018-02-20T17:52:27.096Z,47.57
2018-02-20T17:54:56.969Z,46.67
2018-02-20T17:57:26.905Z,44.63
2018-02-20T17:59:56.764Z,47.10
2018-02-20T18:02:26.678Z,44.43
2018-02-20T18:04:56.516Z,49.63
2018-02-20T18:07:26.373Z,46.03
2018-02-20T18:09:56.232Z,48.40
2018-02-20T18:12:26.118Z,46.90
2018-02-20T18:14:55.960Z,44.83
2018-02-20T18:17:25.808Z,42.57
2018-02-20T18:19:56.097Z,50.50
2018-02-20T18:22:26.047Z,54.07
2018-02-20T18:24:55.993Z,54.27
2018-02-20T18:27:25.916Z,52.03
2018-02-20T18:29:56.187Z,51.13
2018-02-20T18:32:26.058Z,53.13
2018-02-20T18:34:56.031Z,56.90
2018-02-20T18:37:26.027Z,52.00
2018-02-20T18:39:55.971Z,54.23
2018-02-20T18:42:25.833Z,50.90
2018-02-20T18:44:56.161Z,48.83
2018-02-20T18:47:26.666Z,55.63
2018-02-20T18:49:56.559Z,51.03
2018-02-20T18:52:26.422Z,50.53
2018-02-20T18:54:56.332Z,63.67
2018-02-20T18:57:26.197Z,49.13
2018-02-20T18:59:56.475Z,49.37
2018-02-20T19:02:26.366Z,56.60
2018-02-20T19:04:56.580Z,61.03
2018-02-20T19:07:26.488Z,53.20
2018-02-20T19:09:56.549Z,54.50
2018-02-20T19:12:26.559Z,48.17
2018-02-20T19:14:56.474Z,51.87
2018-02-20T19:17:26.305Z,48.37
2018-02-20T19:19:56.456Z,53.27
2018-02-20T19:22:26.564Z,50.60
2018-02-20T19:24:56.602Z,45.57
2018-02-20T19:27:26.461Z,50.57
2018-02-20T19:29:56.451Z,47.70
2018-02-20T19:32:26.336Z,49.67
2018-02-20T19:34:56.246Z,54.20
2018-02-20T19:37:26.170Z,55.97
2018-02-20T19:39:56.188Z,48.93
2018-02-20T19:42:26.299Z,59.07
2018-02-20T19:44:56.138Z,51.50
2018-02-20T19:47:26.881Z,49.03
2018-02-20T19:49:56.778Z,44.40
2018-02-20T19:52:26.743Z,46.27
2018-02-20T19:54:56.582Z,58.03
2018-02-20T19:57:26.593Z,50.37
2018-02-20T19:59:56.559Z,53.67
2018-02-20T20:02:26.427Z,47.17
2018-02-20T20:04:56.267Z,52.90
2018-02-20T20:07:26.194Z,48.07
2018-02-20T20:09:56.100Z,53.57
2018-02-20T20:12:25.993Z,52.17
2018-02-20T20:14:55.857Z,54.47
2018-02-20T20:17:25.716Z,54.10
2018-02-20T20:19:55.607Z,61.03
2018-02-20T20:22:25.534Z,48.77
2018-02-20T20:24:55.410Z,56.73
2018-02-20T20:27:25.336Z,55.50
2018-02-20T20:29:55.203Z,54.20
2018-02-20T20:32:25.097Z,56.30
2018-02-20T20:34:54.974Z,63.40
2018-02-20T20:37:24.881Z,54.03
2018-02-20T20:39:54.751Z,55.63
2018-02-20T20:42:24.653Z,53.67
2018-02-20T20:44:54.548Z,51.43
2018-02-20T20:47:24.483Z,55.20
2018-02-20T20:49:54.366Z,58.13
2018-02-20T20:52:24.303Z,51.60
2018-02-20T20:54:54.200Z,55.33
2018-02-20T20:57:24.046Z,55.83
2018-02-20T20:59:53.959Z,47.03
2018-02-20T21:02:23.850Z,51.50
2018-02-20T21:04:53.704Z,50.53
2018-02-20T21:07:23.879Z,43.27
2018-02-20T21:09:53.769Z,50.60
2018-02-20T21:12:23.595Z,45.07
2018-02-20T21:14:53.479Z,52.50
2018-02-20T21:17:23.335Z,43.10
2018-02-20T21:19:53.685Z,40.17
2018-02-20T21:22:23.570Z,48.63
2018-02-20T21:24:53.503Z,40.90
2018-02-20T21:27:23.375Z,51.83
2018-02-20T21:29:53.276Z,42.80
2018-02-20T21:32:23.213Z,42.93
2018-02-20T21:34:53.167Z,49.33
2018-02-20T21:37:23.021Z,47.07
2018-02-20T21:39:52.885Z,41.77
2018-02-20T21:42:22.905Z,45.63
2018-02-20T21:44:52.729Z,43.07
2018-02-20T21:47:22.665Z,42.00
2018-02-20T21:49:52.560Z,46.17
2018-02-20T21:52:22.417Z,42.93
2018-02-20T21:54:52.286Z,48.43
2018-02-20T21:57:22.154Z,41.07
2018-02-20T21:59:52.020Z,45.77
2018-02-20T22:02:21.910Z,49.10
2018-02-20T22:04:51.733Z,43.90
2018-02-20T22:07:21.562Z,44.10
2018-02-20T22:09:51.446Z,42.53
2018-02-20T22:12:21.317Z,42.47
2018-02-20T22:14:51.320Z,41.63
2018-02-20T22:17:21.181Z,45.13
2018-02-20T22:19:51.055Z,43.57
2018-02-20T22:22:21.157Z,42.83
2018-02-20T22:24:51.047Z,37.50
2018-02-20T22:27:21.031Z,37.50
2018-02-20T22:29:50.904Z,44.30
2018-02-20T22:32:20.879Z,47.90
2018-02-20T22:34:50.812Z,42.80
2018-02-20T22:37:20.783Z,41.67
2018-02-20T22:39:50.711Z,38.97
2018-02-20T22:42:20.566Z,45.37
2018-02-20T22:44:50.673Z,39.47
2018-02-20T22:47:20.493Z,43.20
2018-02-20T22:49:50.679Z,33.43
2018-02-20T22:52:20.534Z,43.90
2018-02-20T22:54:50.809Z,40.00
2018-02-20T22:57:20.658Z,40.20
2018-02-20T22:59:50.830Z,40.27
2018-02-20T23:02:20.709Z,41.50
2018-02-20T23:04:50.600Z,40.63
2018-02-20T23:07:20.437Z,40.87
2018-02-20T23:09:50.606Z,40.83
2018-02-20T23:12:20.460Z,40.30
2018-02-20T23:14:50.624Z,36.93
2018-02-20T23:17:20.477Z,39.87
2018-02-20T23:19:50.355Z,40.87
2018-02-20T23:22:20.244Z,43.83
2018-02-20T23:24:50.187Z,35.67
2018-02-20T23:27:20.129Z,43.43
2018-02-20T23:29:49.995Z,43.27
2018-02-20T23:32:19.832Z,45.27
2018-02-20T23:34:49.699Z,44.00
2018-02-20T23:37:19.592Z,42.33
2018-02-20T23:39:49.435Z,40.43
2018-02-20T23:42:19.340Z,40.03
2018-02-20T23:44:49.178Z,44.37
2018-02-20T23:47:19.110Z,42.57
2018-02-20T23:49:48.961Z,37.90
2018-02-20T23:52:18.803Z,44.30
2018-02-20T23:54:48.837Z,42.43
2018-02-20T23:57:18.746Z,41.23
2018-02-20T23:59:48.872Z,40.90
